Time;durP1;ratioP1;P1;durP2;ratioP2;P2;SDS_P1;SDS_P2;PMS_P1;PMS_P2;Temp;Humidity;BMP_temperature;BMP_pressure;BME280_temperature;BME280_humidity;BME280_pressure;Samples;Min_cycle;Max_cycle;Signal;HPM_P1;HPM_P2
2021/11/14 00:00:40;;;;;;;160.07;32.17;;;9.10;99.90;;;;;;4993395;28;20556;-63
2021/11/14 00:03:09;;;;;;;441.33;56.20;;;9.10;99.90;;;;;;4994034;28;20959;-61
2021/11/14 00:05:40;;;;;;;398.50;52.70;;;9.10;99.90;;;;;;4998380;28;20499;-61
2021/11/14 00:08:09;;;;;;;286.23;43.87;;;9.10;99.90;;;;;;5013241;28;20445;-63
2021/11/14 00:10:42;;;;;;;456.23;57.00;;;9.10;99.90;;;;;;5012845;28;20514;-62
2021/11/14 00:13:10;;;;;;;479.47;63.57;;;9.10;99.90;;;;;;4993884;28;20458;-61
2021/11/14 00:15:39;;;;;;;373.50;50.33;;;9.10;99.90;;;;;;4992805;28;20469;-61
2021/11/14 00:18:08;;;;;;;113.77;27.97;;;9.00;99.90;;;;;;4993235;28;20964;-62
2021/11/14 00:20:36;;;;;;;107.57;29.17;;;9.10;99.90;;;;;;4993013;28;20528;-63
2021/11/14 00:23:05;;;;;;;245.00;36.40;;;9.10;99.90;;;;;;4994591;28;20426;-61
2021/11/14 00:25:34;;;;;;;210.43;36.60;;;9.10;99.90;;;;;;5011983;28;20464;-61
2021/11/14 00:28:08;;;;;;;190.97;35.37;;;9.10;99.90;;;;;;4994249;28;20449;-62
2021/11/14 00:30:43;;;;;;;153.70;31.93;;;9.10;99.90;;;;;;5008079;28;20479;-63
2021/11/14 00:33:12;;;;;;;71.00;24.87;;;9.10;99.90;;;;;;4993184;28;20429;-61
2021/11/14 00:35:41;;;;;;;98.30;31.40;;;9.20;99.90;;;;;;4992241;28;20549;-61
2021/11/14 00:38:09;;;;;;;51.93;27.80;;;9.10;99.90;;;;;;4993719;28;20486;-62
2021/11/14 00:40:40;;;;;;;67.87;27.70;;;9.10;99.90;;;;;;4994239;28;20461;-63
2021/11/14 00:43:10;;;;;;;61.20;29.07;;;9.10;99.90;;;;;;4993281;28;20454;-61
2021/11/14 00:45:40;;;;;;;63.67;28.33;;;9.10;99.90;;;;;;4992374;28;20466;-61
2021/11/14 00:48:08;;;;;;;44.77;23.67;;;9.10;99.90;;;;;;4992985;28;20441;-62
2021/11/14 00:50:38;;;;;;;44.97;25.30;;;9.10;99.90;;;;;;4992640;28;20469;-62
2021/11/14 00:53:07;;;;;;;46.60;23.93;;;9.10;99.90;;;;;;4993002;28;20418;-61
2021/11/14 00:55:35;;;;;;;37.33;22.17;;;9.10;99.90;;;;;;4992298;28;20469;-61
2021/11/14 00:58:05;;;;;;;49.57;27.97;;;9.10;99.90;;;;;;4992855;28;20469;-62
2021/11/14 01:00:35;;;;;;;55.13;25.83;;;9.10;99.90;;;;;;4992461;28;20504;-63
2021/11/14 01:03:05;;;;;;;46.00;25.90;;;9.10;99.90;;;;;;4992731;28;20445;-61
2021/11/14 01:05:35;;;;;;;205.53;39.47;;;9.10;99.90;;;;;;4991982;28;20484;-62
2021/11/14 01:08:05;;;;;;;328.40;47.90;;;9.10;99.90;;;;;;4992705;28;20488;-62
2021/11/14 01:10:36;;;;;;;196.47;38.43;;;9.00;99.90;;;;;;4992311;28;20482;-62
2021/11/14 01:13:05;;;;;;;74.70;25.70;;;9.00;99.90;;;;;;4992409;28;20947;-61
2021/11/14 01:15:35;;;;;;;52.67;24.47;;;;;;;;;;4991910;28;20520;-61
2021/11/14 01:18:03;;;;;;;217.27;39.73;;;9.00;99.90;;;;;;4992588;28;20508;-62
2021/11/14 01:20:33;;;;;;;77.40;27.37;;;;;;;;;;4992271;28;20468;-63
2021/11/14 01:23:04;;;;;;;61.67;27.67;;;;;;;;;;4992732;28;20831;-62
2021/11/14 01:25:33;;;;;;;126.50;37.47;;;9.00;99.90;;;;;;5007593;28;20490;-61
2021/11/14 01:28:01;;;;;;;129.53;36.80;;;9.00;99.90;;;;;;4994277;28;20442;-62
2021/11/14 01:30:30;;;;;;;55.37;29.80;;;;;;;;;;4991978;28;20473;-63
2021/11/14 01:33:01;;;;;;;93.10;31.67;;;;;;;;;;4992403;28;20471;-60
2021/11/14 01:35:30;;;;;;;50.40;27.00;;;;;;;;;;4995974;28;20559;-61
2021/11/14 01:37:58;;;;;;;67.20;28.07;;;9.00;99.90;;;;;;5012124;28;20543;-63
2021/11/14 01:40:28;;;;;;;60.23;26.53;;;;;;;;;;5011823;28;20475;-62
2021/11/14 01:42:56;;;;;;;128.73;34.47;;;;;;;;;;4993859;28;20939;-61
2021/11/14 01:45:25;;;;;;;94.30;33.93;;;8.90;99.90;;;;;;4991552;28;20493;-61
2021/11/14 01:47:54;;;;;;;53.07;26.30;;;;;;;;;;4992182;28;20419;-62
2021/11/14 01:50:24;;;;;;;92.97;31.73;;;;;;;;;;4991343;28;20465;-61
2021/11/14 01:52:53;;;;;;;60.23;26.97;;;;;;;;;;4992392;28;20480;-60
2021/11/14 01:55:23;;;;;;;88.80;27.80;;;;;;;;;;4991607;28;20552;-61
2021/11/14 01:57:52;;;;;;;75.07;27.13;;;;;;;;;;5008583;28;20456;-62
2021/11/14 02:00:22;;;;;;;143.23;29.60;;;;;;;;;;5011156;28;20484;-61
2021/11/14 02:02:51;;;;;;;61.90;24.50;;;;;;;;;;5011744;28;20421;-61
2021/11/14 02:05:22;;;;;;;107.27;30.33;;;;;;;;;;5010829;28;20592;-61
2021/11/14 02:07:53;;;;;;;72.47;27.33;;;;;;;;;;4993176;28;20476;-63
2021/11/14 02:10:22;;;;;;;60.10;24.17;;;;;;;;;;4991834;28;20464;-62
2021/11/14 02:12:51;;;;;;;70.53;27.47;;;;;;;;;;4992217;28;20499;-61
2021/11/14 02:15:19;;;;;;;66.57;25.80;;;8.60;99.90;;;;;;4992245;28;20533;-61
2021/11/14 02:17:48;;;;;;;60.05;24.98;;;;;;;;;;4992122;28;20456;-62
2021/11/14 02:20:20;;;;;;;55.40;22.13;;;;;;;;;;4999453;28;20802;-63
2021/11/14 02:22:48;;;;;;;55.20;22.10;;;;;;;;;;5010451;28;20432;-61
2021/11/14 02:25:18;;;;;;;44.27;19.20;;;;;;;;;;5010690;28;20461;-61
2021/11/14 02:27:47;;;;;;;44.63;20.73;;;;;;;;;;5009761;28;20451;-62
2021/11/14 02:30:16;;;;;;;45.70;20.10;;;;;;;;;;5011207;28;20496;-63
2021/11/14 02:32:45;;;;;;;48.93;21.27;;;;;;;;;;5011390;28;20429;-60
2021/11/14 02:35:35;;;;;;;34.23;20.43;;;;;;;;;;5003163;28;20485;-60
2021/11/14 02:38:04;;;;;;;43.13;20.97;;;8.80;99.90;;;;;;4992039;28;20864;-62
2021/11/14 02:40:32;;;;;;;56.27;22.13;;;8.80;99.90;;;;;;4991494;28;20453;-62
2021/11/14 02:43:00;;;;;;;40.80;18.40;;;8.80;99.90;;;;;;4992215;28;20477;-61
2021/11/14 02:45:29;;;;;;;38.83;18.70;;;8.80;99.90;;;;;;4991532;28;20999;-62
2021/11/14 02:47:58;;;;;;;43.60;19.30;;;8.80;99.90;;;;;;4995213;28;20437;-62
2021/11/14 02:50:27;;;;;;;39.43;18.77;;;8.80;99.90;;;;;;4994458;28;20469;-62
2021/11/14 02:52:56;;;;;;;31.13;17.23;;;8.80;99.90;;;;;;4995299;28;20460;-60
2021/11/14 02:55:26;;;;;;;35.30;15.63;;;8.80;99.90;;;;;;4994516;28;20581;-60
2021/11/14 02:57:55;;;;;;;32.90;17.83;;;8.80;99.90;;;;;;4994729;28;21021;-62
2021/11/14 03:00:26;;;;;;;30.10;16.90;;;8.80;99.90;;;;;;4994686;28;20465;-63
2021/11/14 03:02:55;;;;;;;35.13;16.80;;;8.80;99.90;;;;;;4994724;28;20454;-61
2021/11/14 03:05:24;;;;;;;35.50;17.43;;;8.80;99.90;;;;;;5009283;28;20843;-61
2021/11/14 03:07:53;;;;;;;31.53;16.77;;;8.70;99.90;;;;;;5014476;28;20436;-62
2021/11/14 03:10:24;;;;;;;30.50;17.10;;;8.70;99.90;;;;;;5013916;28;21024;-62
2021/11/14 03:12:54;;;;;;;34.43;18.77;;;8.70;99.90;;;;;;5008016;28;20441;-61
2021/11/14 03:15:22;;;;;;;40.73;19.70;;;8.80;99.90;;;;;;4993880;28;20907;-61
2021/11/14 03:17:50;;;;;;;39.00;18.90;;;8.70;99.90;;;;;;5007128;28;20449;-62
2021/11/14 03:20:19;;;;;;;33.30;18.30;;;8.70;99.90;;;;;;4999452;28;20462;-63
2021/11/14 03:22:47;;;;;;;35.33;20.17;;;8.70;99.90;;;;;;4994604;28;20962;-62
2021/11/14 03:25:15;;;;;;;29.40;17.00;;;8.70;99.90;;;;;;4993725;28;20477;-61
2021/11/14 03:27:45;;;;;;;30.40;16.97;;;8.70;99.90;;;;;;5007948;28;20441;-62
2021/11/14 03:30:16;;;;;;;30.93;16.20;;;8.70;99.90;;;;;;5013495;28;20990;-62
2021/11/14 03:32:44;;;;;;;27.40;15.67;;;8.70;99.90;;;;;;5014219;28;20429;-62
2021/11/14 03:35:13;;;;;;;32.37;17.27;;;8.70;99.90;;;;;;5006592;28;20982;-61
2021/11/14 03:37:41;;;;;;;32.77;15.57;;;8.70;99.90;;;;;;4994584;28;20429;-63
2021/11/14 03:40:12;;;;;;;23.50;16.07;;;8.70;99.90;;;;;;4993790;28;20488;-62
2021/11/14 03:42:41;;;;;;;34.10;16.47;;;8.70;99.90;;;;;;4994477;28;20489;-62
2021/11/14 03:45:11;;;;;;;22.33;15.70;;;8.60;99.90;;;;;;4993506;28;21099;-61
2021/11/14 03:47:40;;;;;;;28.93;17.10;;;8.60;99.90;;;;;;4994238;28;20935;-62
2021/11/14 03:50:09;;;;;;;33.87;16.37;;;8.70;99.90;;;;;;4993413;28;20477;-63
2021/11/14 03:52:39;;;;;;;38.93;16.67;;;8.70;99.90;;;;;;4994265;28;20462;-62
2021/11/14 03:55:08;;;;;;;31.50;16.27;;;8.60;99.90;;;;;;4993283;28;20826;-61
2021/11/14 03:57:36;;;;;;;28.83;15.97;;;8.60;99.90;;;;;;4994232;28;20456;-63
2021/11/14 04:00:09;;;;;;;25.40;14.83;;;8.60;99.90;;;;;;4993771;28;20882;-62
2021/11/14 04:02:39;;;;;;;29.40;16.83;;;8.60;99.90;;;;;;4997022;28;20903;-63
2021/11/14 04:05:09;;;;;;;27.00;16.00;;;8.60;99.90;;;;;;5012489;28;20552;-61
2021/11/14 04:07:37;;;;;;;27.10;16.23;;;8.60;99.90;;;;;;4996636;28;20456;-63
2021/11/14 04:10:06;;;;;;;25.93;17.47;;;8.50;99.90;;;;;;4993443;28;20481;-62
2021/11/14 04:12:34;;;;;;;30.30;15.00;;;8.60;99.90;;;;;;4993743;28;20452;-63
2021/11/14 04:15:02;;;;;;;25.10;15.30;;;8.60;99.90;;;;;;4993161;28;20474;-61
2021/11/14 04:17:30;;;;;;;25.83;15.53;;;8.60;99.90;;;;;;5007436;28;20499;-62
2021/11/14 04:19:59;;;;;;;32.27;16.60;;;8.50;99.90;;;;;;4994715;28;20465;-63
2021/11/14 04:22:28;;;;;;;22.70;16.90;;;8.50;99.90;;;;;;4998677;28;20429;-63
2021/11/14 04:24:56;;;;;;;21.37;13.90;;;8.50;99.90;;;;;;5013688;28;20812;-61
2021/11/14 04:27:24;;;;;;;16.53;12.00;;;8.50;99.90;;;;;;4999710;28;20515;-61
2021/11/14 04:29:52;;;;;;;13.63;11.10;;;8.50;99.90;;;;;;4992931;28;20501;-64
2021/11/14 04:32:20;;;;;;;15.97;10.90;;;8.60;99.90;;;;;;4993214;28;20430;-63
2021/11/14 04:34:48;;;;;;;15.00;10.07;;;8.60;99.90;;;;;;4999024;28;20555;-61
2021/11/14 04:37:18;;;;;;;13.37;10.60;;;8.60;99.90;;;;;;4993740;28;20967;-61
2021/11/14 04:39:46;;;;;;;11.33;9.80;;;8.50;99.90;;;;;;4992910;28;20476;-62
2021/11/14 04:42:15;;;;;;;14.80;10.67;;;8.50;99.90;;;;;;4993242;28;20520;-62
2021/11/14 04:44:43;;;;;;;11.80;9.83;;;8.50;99.90;;;;;;5006636;28;20994;-61
2021/11/14 04:47:11;;;;;;;11.20;9.70;;;8.40;99.90;;;;;;4994340;28;20453;-60
2021/11/14 04:49:40;;;;;;;11.80;9.70;;;8.40;99.90;;;;;;4997821;28;20480;-61
2021/11/14 04:52:08;;;;;;;14.40;10.97;;;8.40;99.90;;;;;;5012663;28;20431;-62
2021/11/14 04:54:38;;;;;;;10.40;8.83;;;8.30;99.90;;;;;;5011957;28;20994;-61
2021/11/14 04:57:06;;;;;;;14.23;9.80;;;8.30;99.90;;;;;;5001571;28;20464;-61
2021/11/14 04:59:34;;;;;;;10.80;8.90;;;8.30;99.90;;;;;;4992116;28;20481;-62
2021/11/14 05:02:03;;;;;;;11.80;8.87;;;8.30;99.90;;;;;;4999485;28;20421;-62
2021/11/14 05:04:31;;;;;;;14.70;9.53;;;8.40;99.90;;;;;;5011868;28;20483;-61
2021/11/14 05:06:59;;;;;;;10.37;9.30;;;8.40;99.90;;;;;;5011755;28;20457;-61
2021/11/14 05:09:28;;;;;;;10.20;8.67;;;8.40;99.90;;;;;;5011233;28;20502;-62
2021/11/14 05:11:57;;;;;;;10.63;8.23;;;8.40;99.90;;;;;;5002581;28;20438;-63
2021/11/14 05:14:25;;;;;;;12.00;9.90;;;8.40;99.90;;;;;;4992161;28;20609;-61
2021/11/14 05:16:53;;;;;;;11.90;8.27;;;8.30;99.90;;;;;;4992753;28;20476;-61
2021/11/14 05:19:21;;;;;;;11.40;10.17;;;8.30;99.90;;;;;;4992107;28;20512;-62
2021/11/14 05:21:49;;;;;;;11.90;9.17;;;8.30;99.90;;;;;;5008199;28;20440;-62
2021/11/14 05:24:17;;;;;;;12.67;9.97;;;8.30;99.90;;;;;;5011727;28;20437;-60
2021/11/14 05:26:47;;;;;;;11.43;10.13;;;8.20;99.90;;;;;;5004472;28;20465;-61
2021/11/14 05:29:17;;;;;;;10.53;9.43;;;8.20;99.90;;;;;;4992167;28;20476;-62
2021/11/14 05:31:45;;;;;;;9.40;8.47;;;8.20;99.90;;;;;;4992651;28;20422;-62
2021/11/14 05:34:13;;;;;;;10.50;8.37;;;8.30;99.90;;;;;;4991902;28;20989;-62
2021/11/14 05:36:41;;;;;;;9.57;8.60;;;8.30;99.90;;;;;;4992637;28;20429;-61
2021/11/14 05:39:09;;;;;;;9.20;8.30;;;8.30;99.90;;;;;;5018800;28;20951;-62
2021/11/14 05:41:37;;;;;;;8.80;7.90;;;8.20;99.90;;;;;;5005024;28;20446;-62
2021/11/14 05:44:07;;;;;;;9.60;8.40;;;8.20;99.90;;;;;;4991538;28;20432;-62
2021/11/14 05:46:37;;;;;;;8.80;7.50;;;8.20;99.90;;;;;;4992582;28;20437;-61
2021/11/14 05:49:08;;;;;;;9.27;6.97;;;8.30;99.90;;;;;;4991812;28;20448;-62
2021/11/14 05:51:37;;;;;;;6.87;6.27;;;8.30;99.90;;;;;;4992255;28;20852;-62
2021/11/14 05:54:05;;;;;;;8.03;7.27;;;8.20;99.90;;;;;;4991819;28;20503;-62
2021/11/14 05:56:34;;;;;;;9.23;8.20;;;8.20;99.90;;;;;;5007486;28;20975;-61
2021/11/14 05:59:08;;;;;;;7.93;7.10;;;8.20;99.90;;;;;;4991587;28;20494;-63
2021/11/14 06:01:41;;;;;;;9.82;7.45;;;8.10;99.90;;;;;;4992174;28;20991;-63
2021/11/14 06:04:17;;;;;;;7.27;6.60;;;8.10;99.90;;;;;;4990993;28;20640;-61
2021/11/14 06:06:45;;;;;;;12.53;7.20;;;8.20;99.90;;;;;;5007467;28;20507;-61
2021/11/14 06:09:14;;;;;;;7.13;6.43;;;8.20;99.90;;;;;;4991712;28;20425;-62
2021/11/14 06:11:42;;;;;;;7.80;7.00;;;8.20;99.90;;;;;;4992237;28;21006;-62
2021/11/14 06:14:10;;;;;;;6.97;5.80;;;8.20;99.90;;;;;;4991356;28;20516;-61
2021/11/14 06:16:39;;;;;;;8.00;5.97;;;8.30;99.90;;;;;;4991862;28;20438;-61
2021/11/14 06:19:07;;;;;;;8.57;6.40;;;8.30;99.90;;;;;;4990606;28;20417;-62
2021/11/14 06:21:36;;;;;;;9.43;7.27;;;8.30;99.90;;;;;;4994254;28;20446;-62
2021/11/14 06:24:04;;;;;;;7.07;6.37;;;8.30;99.90;;;;;;4995154;28;20438;-62
2021/11/14 06:26:33;;;;;;;10.00;6.73;;;8.30;99.90;;;;;;4995603;28;20875;-60
2021/11/14 06:29:01;;;;;;;7.33;6.60;;;8.20;99.90;;;;;;4994976;28;20440;-62
2021/11/14 06:31:29;;;;;;;6.60;6.00;;;8.20;99.90;;;;;;5012091;28;20882;-63
2021/11/14 06:33:58;;;;;;;8.57;6.43;;;8.20;99.90;;;;;;5015165;28;20483;-63
2021/11/14 06:36:27;;;;;;;7.97;6.60;;;8.30;99.90;;;;;;5006469;28;20536;-61
2021/11/14 06:38:55;;;;;;;5.60;5.10;;;8.30;99.90;;;;;;4995454;28;20916;-63
2021/11/14 06:41:23;;;;;;;6.57;5.97;;;8.30;99.90;;;;;;4994886;28;20834;-61
2021/11/14 06:43:51;;;;;;;6.97;6.27;;;8.40;99.90;;;;;;4995193;28;20785;-62
2021/11/14 06:46:19;;;;;;;8.20;7.17;;;8.30;99.90;;;;;;4994581;28;20472;-61
2021/11/14 06:48:47;;;;;;;6.23;5.63;;;8.30;99.90;;;;;;4994993;28;20516;-61
2021/11/14 06:51:17;;;;;;;5.93;5.40;;;8.30;99.90;;;;;;4994817;28;21249;-62
2021/11/14 06:53:45;;;;;;;6.17;5.57;;;8.40;99.90;;;;;;4995217;28;20469;-62
2021/11/14 06:56:13;;;;;;;8.40;5.87;;;8.30;99.90;;;;;;4993775;28;20980;-62
2021/11/14 06:58:42;;;;;;;7.00;6.30;;;8.30;99.90;;;;;;4995759;28;20445;-60
2021/11/14 07:01:10;;;;;;;6.80;6.10;;;8.30;99.90;;;;;;4995212;28;20473;-63
2021/11/14 07:03:38;;;;;;;6.97;6.20;;;8.30;99.90;;;;;;4995090;28;20425;-63
2021/11/14 07:06:06;;;;;;;8.23;7.47;;;8.20;99.90;;;;;;5011028;28;20469;-61
2021/11/14 07:08:36;;;;;;;7.95;6.82;;;8.10;99.90;;;;;;5014641;28;20472;-61
2021/11/14 07:11:04;;;;;;;9.20;8.30;;;8.10;99.90;;;;;;5011484;28;20232;-63
2021/11/14 07:13:32;;;;;;;8.90;7.43;;;8.00;99.90;;;;;;5001530;28;20964;-62
2021/11/14 07:16:01;;;;;;;6.60;6.00;;;8.00;99.90;;;;;;5014149;28;20475;-61
2021/11/14 07:18:29;;;;;;;7.80;5.70;;;8.10;99.90;;;;;;5014234;28;20910;-61
2021/11/14 07:20:57;;;;;;;6.43;5.83;;;8.20;99.90;;;;;;5010265;28;20466;-61
2021/11/14 07:23:25;;;;;;;7.40;5.80;;;8.30;99.90;;;;;;4995162;28;20500;-61
2021/11/14 07:25:55;;;;;;;7.73;6.60;;;8.40;99.90;;;;;;4994344;28;20482;-61
2021/11/14 07:28:23;;;;;;;7.20;6.60;;;8.40;99.90;;;;;;5009794;28;20437;-61
2021/11/14 07:30:51;;;;;;;5.77;5.23;;;8.40;99.90;;;;;;4993683;28;20506;-62
2021/11/14 07:33:19;;;;;;;7.93;7.23;;;8.40;99.90;;;;;;4994231;28;20418;-61
2021/11/14 07:35:47;;;;;;;6.90;6.27;;;8.40;99.90;;;;;;4993668;28;20477;-61
2021/11/14 07:38:16;;;;;;;5.87;5.27;;;8.40;99.90;;;;;;5013891;28;20448;-61
2021/11/14 07:40:44;;;;;;;7.83;7.03;;;8.50;99.90;;;;;;5013290;28;20519;-62
2021/11/14 07:43:14;;;;;;;7.87;5.90;;;8.50;99.90;;;;;;4994527;28;20442;-62
2021/11/14 07:45:42;;;;;;;6.57;6.03;;;8.50;99.90;;;;;;4993647;28;20561;-60
2021/11/14 07:48:11;;;;;;;7.17;6.33;;;8.60;99.90;;;;;;4994367;28;20422;-61
2021/11/14 07:50:40;;;;;;;6.60;5.90;;;8.60;99.90;;;;;;4993707;28;20485;-62
2021/11/14 07:53:09;;;;;;;6.00;5.43;;;8.60;99.90;;;;;;4993957;28;20484;-62
2021/11/14 07:55:37;;;;;;;6.83;6.13;;;8.60;99.90;;;;;;4993281;28;20895;-60
2021/11/14 07:58:06;;;;;;;6.77;6.07;;;8.60;99.90;;;;;;4993857;28;20456;-61
2021/11/14 08:00:38;;;;;;;7.10;6.40;;;8.60;99.90;;;;;;5012460;28;20479;-63
2021/11/14 08:03:06;;;;;;;7.47;6.67;;;8.60;99.90;;;;;;5013213;28;20425;-62
2021/11/14 08:05:34;;;;;;;6.27;5.77;;;8.60;99.90;;;;;;5003820;28;20493;-61
2021/11/14 08:08:02;;;;;;;8.30;7.50;;;8.60;99.90;;;;;;4993701;28;20477;-61
2021/11/14 08:10:32;;;;;;;7.63;6.90;;;8.70;99.90;;;;;;4993073;28;20545;-63
2021/11/14 08:13:05;;;;;;;6.90;6.30;;;8.70;99.90;;;;;;5026694;28;20519;-62
2021/11/14 08:15:35;;;;;;;7.10;6.47;;;8.70;99.90;;;;;;5012308;28;20571;-61
2021/11/14 08:18:04;;;;;;;7.20;6.60;;;8.80;99.90;;;;;;5011978;28;20483;-61
2021/11/14 08:20:33;;;;;;;7.80;7.10;;;8.90;99.90;;;;;;5002907;28;20895;-62
2021/11/14 08:23:01;;;;;;;7.93;7.17;;;9.00;99.90;;;;;;4998178;28;20479;-63
2021/11/14 08:25:30;;;;;;;7.90;7.20;;;9.00;99.90;;;;;;5012378;28;20527;-61
2021/11/14 08:27:59;;;;;;;7.70;7.00;;;9.10;99.90;;;;;;4995114;28;20832;-61
2021/11/14 08:30:27;;;;;;;8.83;8.03;;;9.10;99.90;;;;;;4992829;28;21000;-63
2021/11/14 08:32:57;;;;;;;8.47;7.67;;;9.10;99.90;;;;;;4996098;28;20441;-63
2021/11/14 08:35:25;;;;;;;9.33;8.53;;;9.10;99.90;;;;;;4998977;28;20485;-61
2021/11/14 08:37:57;;;;;;;9.03;8.00;;;9.10;99.90;;;;;;5011761;28;20811;-61
2021/11/14 08:40:27;;;;;;;8.83;8.03;;;9.10;99.90;;;;;;5012065;28;20491;-62
2021/11/14 08:42:57;;;;;;;8.97;8.07;;;9.10;99.90;;;;;;4994989;28;20454;-63
2021/11/14 08:45:26;;;;;;;8.20;7.40;;;9.10;99.90;;;;;;4992242;28;20532;-63
2021/11/14 08:47:57;;;;;;;8.97;7.63;;;9.10;99.90;;;;;;4993097;28;20900;-61
2021/11/14 08:50:25;;;;;;;8.20;7.40;;;9.10;99.90;;;;;;4994077;28;20476;-61
2021/11/14 08:52:55;;;;;;;7.70;7.00;;;9.10;99.90;;;;;;5012732;28;20421;-61
2021/11/14 08:55:26;;;;;;;8.17;7.37;;;9.20;99.90;;;;;;5012017;28;20469;-63
2021/11/14 08:57:56;;;;;;;8.13;7.33;;;9.20;99.90;;;;;;4995461;28;20889;-61
2021/11/14 09:00:32;;;;;;;7.67;6.87;;;9.20;99.90;;;;;;4991123;28;20548;-63
2021/11/14 09:03:03;;;;;;;8.77;7.97;;;9.20;99.90;;;;;;5004427;28;20475;-63
2021/11/14 09:05:32;;;;;;;7.40;6.80;;;9.30;99.90;;;;;;4994948;28;20524;-62
2021/11/14 09:08:06;;;;;;;8.50;7.70;;;9.20;99.90;;;;;;4992874;28;20995;-61
2021/11/14 09:10:37;;;;;;;6.60;6.00;;;9.20;99.90;;;;;;5007205;28;20462;-61
2021/11/14 09:13:05;;;;;;;6.17;5.67;;;9.30;99.90;;;;;;5003815;28;20855;-63
2021/11/14 09:15:33;;;;;;;4.60;3.77;;;9.40;99.90;;;;;;4991969;28;20543;-62
2021/11/14 09:18:15;;;;;;;3.47;3.17;;;9.40;99.90;;;;;;5004236;28;20531;-61
2021/11/14 09:20:45;;;;;;;3.93;3.63;;;9.50;99.90;;;;;;5009725;28;20469;-61
2021/11/14 09:23:14;;;;;;;5.00;4.60;;;9.60;99.90;;;;;;5012053;28;20439;-62
2021/11/14 09:25:42;;;;;;;6.07;5.47;;;9.60;99.90;;;;;;5011259;28;21048;-62
2021/11/14 09:28:11;;;;;;;6.80;6.20;;;9.70;99.90;;;;;;4992366;28;20469;-61
2021/11/14 09:30:40;;;;;;;7.17;6.57;;;9.70;99.90;;;;;;4990883;28;20531;-62
2021/11/14 09:33:08;;;;;;;7.07;6.47;;;9.80;99.90;;;;;;4992472;28;20418;-62
2021/11/14 09:35:37;;;;;;;7.30;6.70;;;9.70;99.90;;;;;;4995753;28;20481;-63
2021/11/14 09:38:06;;;;;;;5.10;4.60;;;9.70;99.90;;;;;;5011712;28;20425;-62
2021/11/14 09:40:36;;;;;;;5.47;4.97;;;9.60;99.90;;;;;;5011236;28;20487;-61
2021/11/14 09:43:05;;;;;;;5.70;5.20;;;9.60;99.90;;;;;;4993033;28;20473;-62
2021/11/14 09:45:35;;;;;;;5.07;4.67;;;9.60;99.90;;;;;;4991586;28;20493;-62
2021/11/14 09:48:04;;;;;;;6.27;5.67;;;9.70;99.90;;;;;;4992709;28;20618;-61
2021/11/14 09:50:37;;;;;;;7.73;7.03;;;9.70;99.90;;;;;;4994053;28;20496;-61
2021/11/14 09:53:06;;;;;;;7.17;6.47;;;9.70;99.90;;;;;;4992091;28;20469;-62
2021/11/14 09:55:35;;;;;;;8.20;7.30;;;9.70;99.90;;;;;;4993862;28;20457;-63
2021/11/14 09:58:06;;;;;;;7.20;6.60;;;9.60;99.90;;;;;;4995019;28;20820;-61
2021/11/14 10:00:35;;;;;;;8.00;7.30;;;9.60;99.90;;;;;;4995746;28;20465;-61
2021/11/14 10:03:05;;;;;;;8.47;7.60;;;9.60;99.90;;;;;;4995788;28;20465;-63
2021/11/14 10:05:35;;;;;;;6.90;5.97;;;9.60;99.90;;;;;;4995138;28;20851;-62
2021/11/14 10:08:07;;;;;;;7.37;6.03;;;9.70;99.90;;;;;;4996178;28;20441;-62
2021/11/14 10:10:39;;;;;;;6.83;5.87;;;9.60;99.90;;;;;;4996569;28;20462;-61
2021/11/14 10:13:17;;;;;;;6.00;5.47;;;9.60;99.90;;;;;;5009410;28;20922;-62
2021/11/14 10:15:48;;;;;;;5.90;4.77;;;9.70;99.90;;;;;;5014778;28;20476;-62
2021/11/14 10:18:19;;;;;;;7.13;5.83;;;9.60;99.90;;;;;;5015407;28;20491;-61
2021/11/14 10:20:50;;;;;;;8.00;6.23;;;9.60;99.90;;;;;;5009942;28;20540;-62
2021/11/14 10:23:20;;;;;;;7.00;5.17;;;9.70;99.90;;;;;;4995784;28;20457;-63
2021/11/14 10:25:51;;;;;;;4.90;4.40;;;9.70;99.90;;;;;;4994502;28;20879;-63
2021/11/14 10:28:20;;;;;;;7.27;5.53;;;9.80;99.90;;;;;;4995945;28;20434;-62
2021/11/14 10:30:52;;;;;;;6.40;5.70;;;9.80;99.90;;;;;;4995005;28;20468;-61
2021/11/14 10:33:23;;;;;;;5.20;4.70;;;9.80;99.90;;;;;;4995768;28;20430;-62
2021/11/14 10:35:54;;;;;;;4.30;3.90;;;9.80;99.90;;;;;;4994598;28;20891;-63
2021/11/14 10:38:28;;;;;;;5.97;4.20;;;9.80;99.90;;;;;;5015869;28;20939;-62
2021/11/14 10:40:58;;;;;;;5.50;4.47;;;9.80;99.90;;;;;;5013230;28;20465;-61
2021/11/14 10:43:28;;;;;;;5.33;4.43;;;9.60;99.90;;;;;;4995430;28;20986;-62
2021/11/14 10:45:58;;;;;;;5.37;4.80;;;9.70;99.90;;;;;;5003900;28;20464;-63
2021/11/14 10:48:29;;;;;;;5.37;4.87;;;9.60;99.90;;;;;;5014896;28;20836;-61
2021/11/14 10:50:59;;;;;;;4.80;4.03;;;9.60;99.90;;;;;;5012119;28;20455;-61
2021/11/14 10:53:32;;;;;;;4.83;4.43;;;9.70;99.90;;;;;;4995198;28;20434;-62
2021/11/14 10:56:02;;;;;;;4.83;4.33;;;9.70;99.90;;;;;;4993560;28;20816;-62
2021/11/14 10:58:32;;;;;;;4.80;4.27;;;9.80;99.90;;;;;;4997218;28;20430;-61
2021/11/14 11:01:04;;;;;;;5.40;4.83;;;9.80;99.90;;;;;;5013851;28;20463;-61
2021/11/14 11:03:36;;;;;;;4.57;4.07;;;9.70;99.90;;;;;;5013286;28;20777;-63
2021/11/14 11:06:06;;;;;;;4.67;4.27;;;9.70;99.90;;;;;;4996506;28;20532;-62
2021/11/14 11:08:37;;;;;;;5.10;4.70;;;9.80;99.90;;;;;;4995152;28;20437;-61
2021/11/14 11:11:26;;;;;;;4.30;3.90;;;9.80;99.90;;;;;;5004422;28;20493;-61
2021/11/14 11:13:55;;;;;;;5.00;4.27;;;9.80;99.90;;;;;;5014008;28;20799;-63
2021/11/14 11:16:24;;;;;;;5.13;4.30;;;9.80;99.90;;;;;;5013376;28;20990;-63
2021/11/14 11:18:57;;;;;;;4.70;4.20;;;9.80;99.90;;;;;;5010695;28;20449;-61
2021/11/14 11:21:30;;;;;;;4.50;4.10;;;9.80;99.90;;;;;;4994488;28;20466;-61
2021/11/14 11:24:12;;;;;;;4.10;3.70;;;9.90;99.90;;;;;;4994732;28;20508;-62
2021/11/14 11:26:42;;;;;;;3.80;3.50;;;9.90;99.90;;;;;;4997137;28;20472;-63
2021/11/14 11:29:16;;;;;;;5.60;3.93;;;10.00;99.90;;;;;;5005656;28;20429;-62
2021/11/14 11:31:46;;;;;;;5.50;4.70;;;10.00;99.90;;;;;;5012533;28;20424;-62
2021/11/14 11:34:16;;;;;;;4.20;3.70;;;10.00;99.90;;;;;;5008569;28;20433;-63
2021/11/14 11:36:45;;;;;;;3.93;3.53;;;10.10;99.90;;;;;;5014359;28;20457;-62
2021/11/14 11:39:15;;;;;;;3.70;3.40;;;10.00;99.90;;;;;;5013522;28;20503;-61
2021/11/14 11:41:44;;;;;;;4.17;3.87;;;10.10;99.90;;;;;;5008669;28;20457;-61
2021/11/14 11:44:13;;;;;;;3.50;3.20;;;10.10;99.90;;;;;;4993679;28;20469;-63
2021/11/14 11:46:46;;;;;;;3.70;3.30;;;10.10;99.90;;;;;;4994036;28;20480;-62
2021/11/14 11:49:35;;;;;;;3.70;3.17;;;10.00;99.90;;;;;;4995527;28;20469;-61
2021/11/14 11:52:08;;;;;;;2.67;2.47;;;10.10;99.90;;;;;;5013856;28;20804;-61
2021/11/14 11:54:38;;;;;;;4.30;3.13;;;10.10;99.90;;;;;;5012614;28;20468;-62
2021/11/14 11:57:10;;;;;;;3.17;2.83;;;10.20;99.90;;;;;;5002685;28;20466;-62
2021/11/14 11:59:41;;;;;;;3.47;3.17;;;10.20;99.90;;;;;;4993536;28;20979;-61
2021/11/14 12:02:12;;;;;;;2.67;2.47;;;9.90;99.90;;;;;;4994233;28;20436;-62
2021/11/14 12:04:41;;;;;;;2.80;2.50;;;9.90;99.90;;;;;;4992117;28;20468;-61
2021/11/14 12:07:12;;;;;;;2.30;2.17;;;9.90;99.90;;;;;;4994021;28;20561;-63
2021/11/14 12:09:44;;;;;;;2.00;1.90;;;10.10;99.90;;;;;;4993237;28;20457;-61
2021/11/14 12:12:25;;;;;;;2.30;2.10;;;10.20;99.90;;;;;;4993714;28;20442;-62
2021/11/14 12:15:13;;;;;;;1.70;1.57;;;10.00;99.90;;;;;;4992971;28;20470;-62
2021/11/14 12:17:49;;;;;;;2.20;2.10;;;10.00;99.90;;;;;;4993792;28;20480;-61
2021/11/14 12:20:20;;;;;;;1.40;1.30;;;10.20;99.90;;;;;;4993071;28;20461;-61
2021/11/14 12:22:51;;;;;;;2.00;1.80;;;10.30;99.90;;;;;;4993474;28;20908;-62
2021/11/14 12:25:31;;;;;;;1.90;1.50;;;10.30;99.90;;;;;;4993404;28;20472;-63
2021/11/14 12:28:08;;;;;;;2.40;2.20;;;10.20;99.90;;;;;;4995305;28;20932;-62
2021/11/14 12:30:42;;;;;;;2.33;2.13;;;10.40;99.90;;;;;;4991821;28;20472;-62
2021/11/14 12:33:21;;;;;;;2.13;1.90;;;10.40;99.90;;;;;;5014604;28;20436;-62
2021/11/14 12:35:53;;;;;;;3.77;2.27;;;10.30;99.90;;;;;;4995990;28;20473;-61
2021/11/14 12:38:24;;;;;;;2.30;2.10;;;10.30;99.90;;;;;;4993311;28;20434;-62
2021/11/14 12:40:59;;;;;;;3.53;2.43;;;10.30;99.90;;;;;;4992678;28;20496;-61
2021/11/14 12:43:31;;;;;;;2.80;2.30;;;10.30;99.90;;;;;;4993036;28;20456;-62
2021/11/14 12:46:06;;;;;;;2.17;1.97;;;10.30;99.90;;;;;;4991323;28;20493;-62
2021/11/14 12:48:36;;;;;;;2.07;1.97;;;10.20;99.90;;;;;;4993265;28;20745;-61
2021/11/14 12:51:07;;;;;;;2.07;1.70;;;10.20;99.90;;;;;;4992599;28;20505;-61
2021/11/14 12:53:51;;;;;;;2.20;1.87;;;10.30;99.90;;;;;;4993063;28;20423;-62
2021/11/14 12:56:49;;;;;;;4.50;2.30;;;10.20;99.90;;;;;;4993211;28;20569;-62
2021/11/14 12:59:24;;;;;;;1.97;1.87;;;10.10;99.90;;;;;;4992348;28;20453;-61
2021/11/14 13:01:56;;;;;;;2.33;2.13;;;10.10;99.90;;;;;;4992848;28;20437;-61
2021/11/14 13:04:51;;;;;;;3.20;1.80;;;10.00;99.90;;;;;;4992160;28;20468;-61
2021/11/14 13:07:23;;;;;;;1.70;1.60;;;10.10;99.90;;;;;;4992928;28;20515;-62
2021/11/14 13:09:52;;;;;;;2.50;2.30;;;10.00;99.90;;;;;;4992221;28;20540;-62